Time;durP1;ratioP1;P1;durP2;ratioP2;P2;SDS_P1;SDS_P2;PMS_P1;PMS_P2;Temp;Humidity;BMP_temperature;BMP_pressure;BME280_temperature;BME280_humidity;BME280_pressure;Samples;Min_cycle;Max_cycle;Signal;HPM_P1;HPM_P2
2022/09/01 00:00:48;;;;;;;11.25;10.00;;;;;;;17.42;100.00;63803.38;5024014;28;20202;-73
2022/09/01 00:03:15;;;;;;;12.13;9.95;;;;;;;17.44;100.00;63800.84;5025793;28;20214;-74
2022/09/01 00:05:43;;;;;;;12.63;10.05;;;;;;;17.36;100.00;63795.06;5027446;28;20210;-73
2022/09/01 00:08:10;;;;;;;11.18;9.27;;;;;;;17.44;100.00;63805.97;5024036;28;20534;-73
2022/09/01 00:10:38;;;;;;;10.50;9.45;;;;;;;17.42;100.00;63803.91;5008965;28;20209;-74
2022/09/01 00:13:06;;;;;;;11.77;10.25;;;;;;;17.42;100.00;63798.22;5006351;28;20203;-73
2022/09/01 00:15:33;;;;;;;11.85;10.75;;;;;;;17.41;100.00;63797.19;5005896;28;20198;-74
2022/09/01 00:17:59;;;;;;;11.75;10.18;;;;;;;17.36;100.00;63792.50;5009069;28;20286;-73
2022/09/01 00:20:26;;;;;;;10.73;9.73;;;;;;;17.36;100.00;63794.56;5007219;28;20228;-74
2022/09/01 00:22:54;;;;;;;11.80;10.60;;;;;;;17.34;100.00;63787.84;5006256;28;20220;-73
2022/09/01 00:25:23;;;;;;;12.43;9.98;;;;;;;17.32;100.00;63788.84;5021523;28;20198;-73
2022/09/01 00:27:52;;;;;;;12.68;10.40;;;;;;;17.30;100.00;63786.78;5014085;28;20550;-73
2022/09/01 00:30:19;;;;;;;10.73;9.55;;;;;;;17.23;100.00;63784.63;5005940;28;20205;-72
2022/09/01 00:32:47;;;;;;;13.98;11.10;;;;;;;17.14;100.00;63767.53;5010385;28;20256;-74
2022/09/01 00:35:14;;;;;;;11.50;10.38;;;;;;;17.12;100.00;63770.59;5018557;28;20205;-75
2022/09/01 00:37:41;;;;;;;13.20;11.05;;;;;;;17.08;100.00;63763.88;5005912;28;20371;-74
2022/09/01 00:40:10;;;;;;;12.55;11.05;;;;;;;16.97;100.00;63757.56;5006188;28;20259;-73
2022/09/01 00:42:38;;;;;;;14.18;11.13;;;;;;;17.00;100.00;63755.53;5005253;28;20218;-73
2022/09/01 00:45:09;;;;;;;13.20;11.73;;;;;;;16.99;100.00;63756.56;5011217;28;20202;-74
2022/09/01 00:47:35;;;;;;;12.82;11.05;;;;;;;16.90;100.00;63750.28;5005469;28;20226;-72
2022/09/01 00:50:06;;;;;;;13.88;12.25;;;;;;;16.89;100.00;63746.16;5006784;28;20270;-73
2022/09/01 00:52:35;;;;;;;13.07;11.68;;;;;;;16.90;100.00;63747.19;5013178;28;20215;-73
2022/09/01 00:55:08;;;;;;;14.77;13.07;;;;;;;16.89;100.00;63743.59;5007627;28;20245;-75
2022/09/01 00:57:35;;;;;;;16.02;12.27;;;;;;;16.90;100.00;63750.28;5005287;28;20241;-74
2022/09/01 01:00:10;;;;;;;17.83;13.02;;;;;;;16.91;100.00;63751.31;5005219;28;20206;-73
2022/09/01 01:02:37;;;;;;;15.35;13.10;;;;;;;16.87;100.00;63739.44;5007846;28;20527;-74
2022/09/01 01:05:05;;;;;;;18.85;14.27;;;;;;;16.78;100.00;63737.78;5005274;28;20274;-73
2022/09/01 01:07:43;;;;;;;20.02;14.68;;;;;;;16.74;100.00;63727.97;5014314;28;20276;-73
2022/09/01 01:10:13;;;;;;;19.27;14.65;;;;;;;16.64;100.00;63714.97;5026995;28;20471;-74
2022/09/01 01:12:42;;;;;;;15.85;13.80;;;;;;;16.69;100.00;63722.75;5019808;28;20226;-73
2022/09/01 01:15:12;;;;;;;19.73;14.68;;;;;;;16.69;100.00;63725.31;5024803;28;20495;-72
2022/09/01 01:17:39;;;;;;;19.80;14.93;;;;;;;16.70;100.00;63718.66;5024824;28;20303;-74
2022/09/01 01:23:05;;;;;;;19.35;14.75;;;;;;;16.67;100.00;63728.91;5024415;28;20197;-74
2022/09/01 01:25:37;;;;;;;19.58;14.60;;;;;;;16.64;100.00;63717.56;5020763;28;20198;-72
2022/09/01 01:28:10;;;;;;;19.52;15.63;;;;;;;16.56;100.00;63714.91;5004038;28;20199;-75
2022/09/01 01:30:38;;;;;;;16.50;14.30;;;;;;;16.59;100.00;63712.88;5004939;28;20262;-75
2022/09/01 01:33:06;;;;;;;19.80;15.10;;;;;;;16.59;100.00;63723.16;5005952;28;20215;-74
2022/09/01 01:35:33;;;;;;;17.40;14.90;;;;;;;16.59;100.00;63712.34;5008037;28;20257;-75
2022/09/01 01:38:01;;;;;;;21.42;16.73;;;;;;;16.58;100.00;63708.75;5005154;28;20252;-73
2022/09/01 01:40:30;;;;;;;25.55;18.38;;;;;;;16.47;100.00;63699.88;5017788;28;20209;-75
2022/09/01 01:43:00;;;;;;;18.85;15.93;;;;;;;16.52;100.00;63705.59;5022599;28;20557;-74
2022/09/01 01:45:27;;;;;;;28.60;19.00;;;;;;;16.56;100.00;63714.38;5004855;28;20258;-75
2022/09/01 01:47:55;;;;;;;18.25;14.93;;;;;;;16.42;100.00;63695.19;5005329;28;20265;-74
2022/09/01 01:50:24;;;;;;;18.02;15.27;;;;;;;16.32;100.00;63684.78;5005555;28;20202;-74
2022/09/01 01:52:51;;;;;;;20.23;14.40;;;;;;;16.28;100.00;63685.22;5004039;28;20249;-72
2022/09/01 01:55:18;;;;;;;18.25;14.57;;;;;;;16.23;100.00;63685.69;5004393;28;20198;-74
2022/09/01 01:57:48;;;;;;;21.30;15.73;;;;;;;16.26;100.00;63675.97;5004769;28;20282;-73
2022/09/01 02:00:19;;;;;;;25.58;16.60;;;;;;;16.23;100.00;63680.03;5004984;28;20210;-73
2022/09/01 02:02:51;;;;;;;21.52;16.77;;;;;;;16.22;100.00;63679.53;5014063;28;20368;-74
2022/09/01 02:05:20;;;;;;;21.15;16.15;;;;;;;16.16;100.00;63665.56;5024341;28;20210;-73
2022/09/01 02:07:47;;;;;;;21.63;16.02;;;;;;;16.19;100.00;63669.19;5023977;28;20252;-74
2022/09/01 02:10:14;;;;;;;21.20;14.95;;;;;;;16.18;100.00;63672.78;5022676;28;20202;-74
2022/09/01 02:12:41;;;;;;;16.20;14.10;;;;;;;16.19;100.00;63676.38;5023184;28;20225;-74
2022/09/01 02:15:11;;;;;;;17.67;14.13;;;;;;;16.14;100.00;63658.34;5025764;28;20201;-73
2022/09/01 02:17:41;;;;;;;16.45;14.52;;;;;;;16.07;100.00;63664.44;5023728;28;20460;-74
2022/09/01 02:20:09;;;;;;;17.60;12.90;;;;;;;16.01;100.00;63652.53;5019425;28;20222;-75
2022/09/01 02:22:38;;;;;;;16.63;12.23;;;;;;;16.01;100.00;63650.47;5015897;28;20219;-73
2022/09/01 02:25:05;;;;;;;17.05;12.75;;;;;;;15.98;100.00;63649.94;5004399;28;20199;-75
2022/09/01 02:27:38;;;;;;;18.08;13.88;;;;;;;16.03;100.00;63657.19;5013832;28;20238;-73
2022/09/01 02:30:09;;;;;;;17.73;12.18;;;;;;;15.99;100.00;63653.53;5020766;28;20261;-74
2022/09/01 02:32:37;;;;;;;17.38;13.43;;;;;;;15.99;100.00;63655.59;5024417;28;20218;-73
2022/09/01 02:35:08;;;;;;;17.70;11.95;;;;;;;15.95;100.00;63651.94;5023748;28;20199;-74
2022/09/01 02:37:38;;;;;;;17.73;13.80;;;;;;;15.97;100.00;63654.03;5022931;28;20320;-73
2022/09/01 02:40:09;;;;;;;18.58;13.05;;;;;;;16.02;100.00;63659.22;5008155;28;20534;-74
2022/09/01 02:42:42;;;;;;;15.25;12.77;;;;;;;15.99;100.00;63655.59;5023751;28;20518;-73
2022/09/01 02:45:15;;;;;;;16.55;12.63;;;;;;;15.99;100.00;63650.44;5025096;28;20186;-74
2022/09/01 02:47:47;;;;;;;13.32;11.68;;;;;;;15.98;100.00;63651.97;5017611;28;20479;-73
2022/09/01 02:50:17;;;;;;;17.55;11.50;;;;;;;15.94;100.00;63648.34;5017255;28;20253;-75
2022/09/01 02:52:47;;;;;;;14.52;12.05;;;;;;;15.95;100.00;63646.81;5023524;28;20226;-73
2022/09/01 02:55:20;;;;;;;18.27;12.77;;;;;;;15.90;100.00;63641.63;5023637;28;20237;-72
2022/09/01 02:57:48;;;;;;;17.70;12.60;;;;;;;15.91;100.00;63639.56;5008928;28;20248;-74
2022/09/01 03:00:21;;;;;;;16.92;12.48;;;;;;;15.95;100.00;63643.72;5019424;28;20245;-74
2022/09/01 03:02:52;;;;;;;15.00;12.07;;;;;;;15.94;100.00;63648.34;5023380;28;20534;-74
2022/09/01 03:05:24;;;;;;;14.93;12.95;;;;;;;15.90;100.00;63644.19;5021526;28;20217;-73
2022/09/01 03:07:55;;;;;;;13.02;11.65;;;;;;;15.90;100.00;63644.19;5014427;28;20444;-73
2022/09/01 03:10:31;;;;;;;14.60;12.43;;;;;;;15.95;100.00;63646.81;5022928;28;20221;-73
2022/09/01 03:13:02;;;;;;;15.98;12.60;;;;;;;15.94;100.00;63645.78;5023174;28;20339;-74
2022/09/01 03:15:29;;;;;;;15.35;12.13;;;;;;;15.94;100.00;63648.34;5013718;28;20199;-73
2022/09/01 03:17:59;;;;;;;13.15;11.77;;;;;;;15.93;100.00;63641.63;5023563;28;20237;-73
2022/09/01 03:20:29;;;;;;;14.88;12.43;;;;;;;15.92;100.00;63643.69;5023389;28;20201;-74
2022/09/01 03:22:58;;;;;;;14.05;11.57;;;;;;;15.93;100.00;63646.78;5022641;28;20258;-74
2022/09/01 03:25:27;;;;;;;13.45;12.13;;;;;;;15.89;100.00;63642.63;5006632;28;20199;-73
2022/09/01 03:27:54;;;;;;;17.60;13.05;;;;;;;15.86;100.00;63634.88;5012218;28;20195;-74
2022/09/01 03:30:21;;;;;;;18.90;12.82;;;;;;;15.84;100.00;63632.78;5023178;28;20376;-74
2022/09/01 03:32:49;;;;;;;17.70;12.63;;;;;;;15.88;100.00;63639.53;5018308;28;20230;-73
2022/09/01 03:35:16;;;;;;;19.30;13.48;;;;;;;15.86;100.00;63640.00;5023429;28;20261;-75
2022/09/01 03:37:44;;;;;;;20.20;12.85;;;;;;;15.90;100.00;63641.63;5022789;28;20524;-73
2022/09/01 03:40:14;;;;;;;17.50;13.70;;;;;;;15.89;100.00;63642.63;5022540;28;20195;-74
2022/09/01 03:42:42;;;;;;;16.42;13.15;;;;;;;15.97;100.00;63650.94;5018118;28;20226;-75
2022/09/01 03:45:11;;;;;;;21.48;15.32;;;;;;;15.96;100.00;63647.34;5022865;28;20209;-73
2022/09/01 03:47:39;;;;;;;24.83;16.50;;;;;;;15.94;100.00;63650.91;5021051;28;20590;-73
2022/09/01 03:50:11;;;;;;;19.90;16.08;;;;;;;15.96;100.00;63647.84;5025095;28;20227;-74
2022/09/01 03:52:39;;;;;;;20.38;16.17;;;;;;;15.97;100.00;63650.94;5011551;28;20241;-74
2022/09/01 03:55:09;;;;;;;18.77;13.80;;;;;;;15.96;100.00;63650.41;5008107;28;20203;-73
2022/09/01 03:57:41;;;;;;;21.33;14.15;;;;;;;15.99;100.00;63648.41;5026268;28;20241;-73
2022/09/01 04:00:19;;;;;;;16.48;12.95;;;;;;;16.03;100.00;63657.19;5022077;28;20210;-74
2022/09/01 04:02:47;;;;;;;17.50;13.75;;;;;;;16.02;100.00;63658.69;5010225;28;20210;-75
2022/09/01 04:05:14;;;;;;;24.70;13.15;;;;;;;16.09;100.00;63660.84;5006298;28;20218;-74
2022/09/01 04:07:45;;;;;;;17.98;12.77;;;;;;;16.10;100.00;63667.53;5025335;28;20222;-73
2022/09/01 04:10:14;;;;;;;15.00;12.95;;;;;;;16.15;100.00;63667.09;5014023;28;20230;-73
2022/09/01 04:12:41;;;;;;;14.40;11.98;;;;;;;16.23;100.00;63680.03;5006270;28;20286;-73
2022/09/01 04:15:09;;;;;;;17.40;11.90;;;;;;;16.26;100.00;63680.56;5014736;28;20221;-73
2022/09/01 04:20:20;;;;;;;15.13;13.10;;;;;;;16.36;100.00;63694.06;5022018;28;20209;-72
2022/09/01 04:22:49;;;;;;;15.77;11.82;;;;;;;16.40;100.00;63695.66;5027464;28;20218;-74
2022/09/01 04:25:21;;;;;;;15.60;12.70;;;;;;;16.46;100.00;63701.94;5027644;28;20199;-74
2022/09/01 04:27:49;;;;;;;22.65;16.25;;;;;;;16.53;100.00;63711.25;5022568;28;20282;-74
2022/09/01 04:30:16;;;;;;;20.85;16.02;;;;;;;16.55;100.00;63708.22;5028345;28;20260;-72
2022/09/01 04:32:45;;;;;;;20.98;15.95;;;;;;;16.65;100.00;63723.75;5028708;28;20237;-74
2022/09/01 04:35:15;;;;;;;17.58;14.82;;;;;;;16.64;100.00;63720.13;5028408;28;20205;-73
2022/09/01 04:37:43;;;;;;;15.82;13.73;;;;;;;16.65;100.00;63723.75;5022384;28;20229;-73
2022/09/01 04:40:13;;;;;;;18.63;12.95;;;;;;;16.71;100.00;63724.84;5026572;28;20396;-73
2022/09/01 04:42:43;;;;;;;19.23;15.38;;;;;;;16.74;100.00;63731.06;5027870;28;20245;-74
2022/09/01 04:45:12;;;;;;;18.52;12.02;;;;;;;16.74;100.00;63725.41;5025581;28;20198;-73
2022/09/01 04:47:40;;;;;;;20.10;16.30;;;;;;;16.81;100.00;63733.19;5026754;28;20277;-74
2022/09/01 04:50:12;;;;;;;19.15;13.88;;;;;;;16.83;100.00;63737.84;5026770;28;20200;-74
2022/09/01 04:52:40;;;;;;;15.40;12.55;;;;;;;16.97;100.00;63752.44;5025351;28;20225;-75
2022/09/01 04:55:16;;;;;;;20.98;16.33;;;;;;;17.08;100.00;63763.88;5023933;28;20397;-72
2022/09/01 04:57:48;;;;;;;23.30;17.23;;;;;;;17.13;100.00;63768.56;5025781;28;20229;-74
2022/09/01 05:00:21;;;;;;;21.52;16.60;;;;;;;17.01;100.00;63758.66;5025252;28;20198;-74
2022/09/01 05:02:50;;;;;;;21.50;17.13;;;;;;;16.92;100.00;63747.22;5023597;28;20218;-73
2022/09/01 05:05:18;;;;;;;26.73;17.85;;;;;;;16.79;100.00;63733.69;5020947;28;20517;-73
2022/09/01 05:07:45;;;;;;;24.60;17.88;;;;;;;16.67;100.00;63723.78;5024507;28;20217;-73
2022/09/01 05:10:12;;;;;;;25.50;19.83;;;;;;;16.73;100.00;63729.50;5005126;28;20406;-72
2022/09/01 05:12:40;;;;;;;22.02;18.50;;;;;;;16.65;100.00;63721.69;5014837;28;20252;-74
2022/09/01 05:15:09;;;;;;;28.50;20.33;;;;;;;16.74;100.00;63733.63;5009350;28;20206;-75
2022/09/01 05:17:37;;;;;;;25.85;18.50;;;;;;;16.98;100.00;63758.09;5006387;28;20234;-73
2022/09/01 05:20:05;;;;;;;21.33;16.33;;;;;;;16.95;100.00;63749.81;5005493;28;20234;-74
2022/09/01 05:22:32;;;;;;;21.15;15.73;;;;;;;16.91;100.00;63745.66;5010443;28;20277;-74
2022/09/01 05:25:11;;;;;;;24.95;16.38;;;;;;;16.99;100.00;63751.41;5014360;28;20205;-72
2022/09/01 05:27:39;;;;;;;22.75;16.75;;;;;;;17.15;100.00;63773.22;5026095;28;20287;-74
2022/09/01 05:30:09;;;;;;;26.42;17.17;;;;;;;17.15;100.00;63768.56;5026324;28;20194;-75
2022/09/01 05:32:38;;;;;;;23.42;17.55;;;;;;;17.07;100.00;63762.84;5020569;28;20269;-73
2022/09/01 05:35:07;;;;;;;28.75;19.13;;;;;;;17.21;100.00;63779.97;5024498;28;20225;-74
2022/09/01 05:37:36;;;;;;;25.45;17.15;;;;;;;17.43;100.00;63799.78;5024818;28;20226;-73
2022/09/01 05:40:05;;;;;;;21.48;15.70;;;;;;;17.60;100.00;63820.06;5024637;28;20198;-73
2022/09/01 05:42:32;;;;;;;26.25;15.85;;;;;;;17.73;100.00;63833.09;5019404;28;20560;-74
2022/09/01 05:45:00;;;;;;;20.67;16.10;;;;;;;17.89;100.00;63847.19;5024078;28;20198;-74
2022/09/01 05:47:29;;;;;;;24.67;16.45;;;;;;;17.97;100.00;63860.66;5020125;28;20512;-74
2022/09/01 05:49:57;;;;;;;27.35;17.88;;;;;;;18.08;100.00;63866.97;5008802;28;20198;-74
2022/09/01 05:52:25;;;;;;;23.90;17.73;;;;;;;18.24;100.00;63888.81;5024545;28;20232;-75
2022/09/01 05:54:52;;;;;;;23.00;17.80;;;;;;;18.44;100.00;63909.66;5024390;28;20198;-75
2022/09/01 05:57:19;;;;;;;18.02;15.32;;;;;;;18.43;100.00;63909.13;5024361;28;20249;-73
2022/09/01 05:59:52;;;;;;;27.27;16.60;;;;;;;18.42;100.00;63900.38;5015206;28;20230;-75
2022/09/01 06:02:20;;;;;;;17.27;14.10;;;;;;;18.50;100.00;63908.16;5021094;28;20218;-73
2022/09/01 06:04:48;;;;;;;23.25;14.45;;;;;;;18.72;100.00;63935.75;5007002;28;20406;-73
2022/09/01 06:07:17;;;;;;;20.48;13.63;;;;;;;18.83;100.00;63939.47;5011780;28;20221;-75
2022/09/01 06:09:46;;;;;;;20.75;14.85;;;;;;;18.77;100.00;63936.31;5019755;28;20291;-74
2022/09/01 06:12:22;;;;;;;18.35;14.27;;;;;;;18.76;100.00;63939.94;5024655;28;20376;-74
2022/09/01 06:14:51;;;;;;;17.80;13.52;;;;;;;18.83;100.00;63942.03;5028703;28;20208;-74
2022/09/01 06:17:23;;;;;;;19.15;13.23;;;;;;;18.76;100.00;63935.28;5021495;28;20219;-74
2022/09/01 06:19:54;;;;;;;16.00;12.80;;;;;;;18.73;100.00;63936.78;5022993;28;20214;-74
2022/09/01 06:22:22;;;;;;;15.38;12.90;;;;;;;18.59;100.00;63925.28;5025128;28;20256;-74
2022/09/01 06:24:50;;;;;;;17.20;12.05;;;;;;;18.85;100.00;63949.81;5025289;28;20304;-73
2022/09/01 06:27:19;;;;;;;14.48;12.43;;;;;;;18.99;100.00;63963.88;5021179;28;20222;-74
2022/09/01 06:29:48;;;;;;;17.33;11.50;;;;;;;18.92;100.00;63954.53;5024822;28;20221;-74
2022/09/01 06:32:15;;;;;;;12.05;10.85;;;;;;;19.03;100.00;63962.91;5024151;28;20225;-74
2022/09/01 06:34:48;;;;;;;16.25;11.60;;;;;;;19.09;100.00;63977.41;5023993;28;20198;-73
2022/09/01 06:37:21;;;;;;;14.02;12.15;;;;;;;19.15;100.00;63978.00;5019637;28;20526;-74
2022/09/01 06:39:49;;;;;;;13.95;11.52;;;;;;;19.33;100.00;63994.72;5021769;28;20226;-74
2022/09/01 06:42:16;;;;;;;16.50;13.90;;;;;;;19.44;100.00;64011.38;5023899;28;20230;-73
2022/09/01 06:44:44;;;;;;;18.00;13.63;;;;;;;19.55;100.00;64019.72;5020332;28;20203;-74
2022/09/01 06:47:11;;;;;;;17.38;13.50;;;;;;;19.73;100.00;64037.97;5024208;28;20253;-73
2022/09/01 06:49:39;;;;;;;15.38;12.90;;;;;;;19.72;100.00;64034.34;5024187;28;20202;-74
2022/09/01 06:52:06;;;;;;;15.73;13.10;;;;;;;19.82;100.00;64052.53;5024789;28;20253;-74
2022/09/01 06:54:37;;;;;;;15.13;13.45;;;;;;;19.96;100.00;64059.91;5021535;28;20210;-75
2022/09/01 06:57:05;;;;;;;14.57;12.65;;;;;;;20.12;100.00;64083.84;5022923;28;20214;-75
2022/09/01 06:59:32;;;;;;;17.23;12.25;;;;;;;20.23;100.00;64092.75;5023379;28;20273;-75
2022/09/01 07:02:02;;;;;;;15.18;12.63;;;;;;;20.25;100.00;64092.25;5023615;28;20230;-73
2022/09/01 07:04:30;;;;;;;24.00;14.40;;;;;;;20.23;100.00;64092.75;5009847;28;20206;-74
2022/09/01 07:06:57;;;;;;;19.33;15.30;;;;;;;20.05;100.00;64071.38;5010335;28;20262;-73
2022/09/01 07:09:25;;;;;;;17.88;14.73;;;;;;;20.06;100.00;64074.97;5023610;28;20202;-73
2022/09/01 07:11:54;;;;;;;19.15;15.90;;;;;;;20.02;100.00;64076.00;5003619;28;20230;-73
2022/09/01 07:14:21;;;;;;;24.13;16.30;;;;;;;19.97;100.00;64060.94;5004211;28;20222;-73
2022/09/01 07:16:49;;;;;;;29.50;17.63;;;;;;;19.96;100.00;64059.38;5004257;28;20578;-73
2022/09/01 07:19:17;;;;;;;24.13;15.27;;;;;;;20.18;100.00;64084.94;5021806;28;20236;-72
2022/09/01 07:21:44;;;;;;;22.98;15.98;;;;;;;20.28;100.00;64100.53;5025215;28;20222;-73
2022/09/01 07:24:16;;;;;;;23.80;16.63;;;;;;;20.36;100.00;64106.31;5024460;28;20269;-73
2022/09/01 07:26:44;;;;;;;22.48;16.80;;;;;;;20.07;100.00;64076.53;5026393;28;20236;-74
2022/09/01 07:29:13;;;;;;;19.73;15.60;;;;;;;20.22;100.00;64091.72;5021432;28;20205;-74
2022/09/01 07:31:42;;;;;;;21.80;16.48;;;;;;;20.33;100.00;64100.59;5027335;28;20411;-72
2022/09/01 07:34:13;;;;;;;25.10;18.02;;;;;;;20.41;100.00;64109.47;5029344;28;20198;-74
2022/09/01 07:36:41;;;;;;;24.83;17.10;;;;;;;20.37;100.00;64107.34;5023115;28;20226;-74
2022/09/01 07:39:09;;;;;;;19.05;16.67;;;;;;;20.59;100.00;64136.00;5011090;28;20312;-74
2022/09/01 07:41:37;;;;;;;19.92;16.30;;;;;;;20.90;100.00;64160.09;5007937;28;20219;-74
2022/09/01 07:44:07;;;;;;;23.35;17.02;;;;;;;21.05;100.00;64178.38;5008340;28;20265;-73
2022/09/01 07:46:35;;;;;;;20.50;14.40;;;;;;;21.16;100.00;64189.84;5018708;28;20222;-73
2022/09/01 07:49:03;;;;;;;20.33;15.60;;;;;;;20.96;100.00;64165.84;5028825;28;20198;-72
2022/09/01 07:51:32;;;;;;;24.17;16.95;;;;;;;21.01;99.65;64174.19;5027546;28;20241;-73
2022/09/01 07:54:01;;;;;;;21.52;15.93;;;;;;;20.95;100.00;64167.91;5028462;28;20199;-73
2022/09/01 07:56:30;;;;;;;20.67;14.80;;;;;;;21.17;99.94;64190.91;5013470;28;20218;-73
2022/09/01 07:58:57;;;;;;;19.00;14.82;;;;;;;21.12;99.03;64182.56;5008753;28;20234;-75
2022/09/01 08:01:27;;;;;;;18.38;15.60;;;;;;;21.17;99.66;64188.31;5008848;28;20233;-74
2022/09/01 08:03:58;;;;;;;20.27;14.85;;;;;;;21.20;99.58;64191.44;5009479;28;20225;-75
2022/09/01 08:06:27;;;;;;;19.73;14.30;;;;;;;21.28;98.74;64202.38;5025264;28;20256;-76
2022/09/01 08:08:56;;;;;;;20.20;13.43;;;;;;;21.48;97.91;64227.94;5027361;28;20198;-73
2022/09/01 08:11:27;;;;;;;17.27;14.40;;;;;;;21.56;97.80;64231.63;5028117;28;20256;-74
2022/09/01 08:13:57;;;;;;;20.33;13.98;;;;;;;21.74;96.46;64252.50;5026283;28;20198;-74
2022/09/01 08:16:24;;;;;;;16.38;14.23;;;;;;;21.53;95.31;64227.97;5027918;28;20241;-72
2022/09/01 08:18:51;;;;;;;18.23;15.57;;;;;;;21.76;95.06;64249.41;5015741;28;20222;-74
2022/09/01 08:21:23;;;;;;;23.98;14.80;;;;;;;21.66;95.59;64244.66;5007102;28;20543;-73
2022/09/01 08:23:51;;;;;;;22.65;16.33;;;;;;;21.47;96.08;64221.69;5016291;28;20521;-72
2022/09/01 08:26:21;;;;;;;24.73;16.27;;;;;;;21.62;96.25;64235.31;5027054;28;20218;-72
2022/09/01 08:28:48;;;;;;;27.00;17.77;;;;;;;21.65;95.94;64238.44;5026345;28;20205;-75
2022/09/01 08:31:17;;;;;;;23.77;16.02;;;;;;;21.91;95.05;64262.00;5021375;28;20591;-74
2022/09/01 08:33:47;;;;;;;23.05;16.17;;;;;;;21.95;95.51;64271.88;5022175;28;20208;-74
2022/09/01 08:36:16;;;;;;;23.83;16.15;;;;;;;22.19;92.61;64296.44;5026325;28;20218;-74
2022/09/01 08:38:45;;;;;;;20.52;15.07;;;;;;;22.06;90.56;64280.25;5027802;28;20255;-74
2022/09/01 08:41:33;;;;;;;19.60;15.85;;;;;;;21.95;91.13;64268.78;5020093;28;20232;-74
2022/09/01 08:44:10;;;;;;;25.35;16.30;;;;;;;21.91;93.66;64269.78;5027487;28;20198;-73
2022/09/01 08:46:41;;;;;;;21.33;16.80;;;;;;;21.80;94.76;64263.97;5027585;28;20218;-73
2022/09/01 08:49:13;;;;;;;24.75;16.23;;;;;;;21.90;93.14;64266.13;5023388;28;20205;-74
2022/09/01 08:51:46;;;;;;;22.65;16.42;;;;;;;21.91;91.64;64265.09;5012573;28;20217;-72
2022/09/01 08:54:24;;;;;;;23.92;16.40;;;;;;;21.45;94.13;64220.13;5026572;28;20224;-72
2022/09/01 08:56:54;;;;;;;18.98;15.75;;;;;;;21.51;94.52;64226.41;5026792;28;20565;-74
2022/09/01 08:59:21;;;;;;;18.90;14.45;;;;;;;21.61;94.97;64239.44;5015358;28;20571;-74
2022/09/01 09:01:57;;;;;;;22.33;16.20;;;;;;;21.57;93.19;64234.75;5009159;28;20229;-73
2022/09/01 09:04:46;;;;;;;22.50;16.45;;;;;;;21.71;93.29;64246.78;5026155;28;20221;-74
2022/09/01 09:07:22;;;;;;;19.48;14.80;;;;;;;21.77;94.15;64255.66;5024511;28;20218;-73
2022/09/01 09:09:56;;;;;;;24.80;15.88;;;;;;;21.74;93.53;64247.84;5006382;28;20186;-72
2022/09/01 09:12:45;;;;;;;17.50;14.65;;;;;;;21.85;94.33;64260.91;5024370;28;20448;-74
2022/09/01 09:15:20;;;;;;;20.65;15.40;;;;;;;22.02;93.53;64278.69;5025679;28;20187;-73
2022/09/01 09:17:58;;;;;;;21.83;14.60;;;;;;;22.07;95.14;64278.72;5021735;28;20330;-74
2022/09/01 09:20:25;;;;;;;23.23;15.02;;;;;;;22.12;93.53;64289.13;5024842;28;20244;-74
2022/09/01 09:22:52;;;;;;;20.67;15.57;;;;;;;22.06;96.44;64282.84;5025243;28;20214;-74
2022/09/01 09:25:23;;;;;;;18.15;14.63;;;;;;;22.22;96.10;64294.91;5021991;28;20273;-74
2022/09/01 09:27:51;;;;;;;21.45;15.48;;;;;;;22.57;93.12;64334.09;5024102;28;20241;-74
2022/09/01 09:30:21;;;;;;;28.52;18.20;;;;;;;22.76;85.54;64356.06;5025798;28;20198;-74
2022/09/01 09:32:50;;;;;;;18.88;15.30;;;;;;;22.89;85.00;64372.25;5025774;28;20264;-74
2022/09/01 09:35:23;;;;;;;23.20;15.07;;;;;;;22.97;83.40;64380.09;5018997;28;20198;-74
2022/09/01 09:37:50;;;;;;;22.00;14.30;;;;;;;23.23;80.97;64409.88;5005681;28;20245;-73
2022/09/01 09:40:20;;;;;;;20.35;12.38;;;;;;;23.32;75.23;64414.09;5012504;28;20361;-74
2022/09/01 09:43:06;;;;;;;17.38;12.32;;;;;;;23.63;74.32;64449.13;5024744;28;20539;-76
2022/09/01 09:45:36;;;;;;;13.10;11.77;;;;;;;23.89;73.08;64476.88;5005513;28;20209;-74
2022/09/01 09:48:07;;;;;;;17.23;10.85;;;;;;;24.21;70.64;64507.28;5004428;28;20496;-74
2022/09/01 09:50:37;;;;;;;12.10;10.75;;;;;;;24.45;67.17;64534.47;5022466;28;20298;-73
2022/09/01 09:53:14;;;;;;;12.23;9.77;;;;;;;24.52;66.41;64536.59;5021621;28;20213;-74
2022/09/01 09:55:54;;;;;;;10.05;9.10;;;;;;;24.64;60.15;64552.28;5004551;28;20199;-73
2022/09/01 09:58:25;;;;;;;11.80;9.63;;;;;;;24.34;61.22;64517.75;5004578;28;20202;-74
2022/09/01 10:01:04;;;;;;;13.15;9.93;;;;;;;24.24;61.50;64513.00;5021498;28;20237;-75
2022/09/01 10:03:36;;;;;;;13.60;10.80;;;;;;;24.50;62.54;64537.09;5009436;28;20491;-74
2022/09/01 10:06:03;;;;;;;13.00;10.75;;;;;;;24.63;62.77;64550.69;5005405;28;20236;-74
2022/09/01 10:08:43;;;;;;;14.40;10.52;;;;;;;24.74;61.42;64564.84;5020918;28;20403;-75
2022/09/01 10:11:13;;;;;;;13.40;10.95;;;;;;;24.84;60.33;64570.13;5024222;28;20253;-74
2022/09/01 10:13:41;;;;;;;24.33;9.88;;;;;;;24.77;62.07;64568.00;5024238;28;20409;-74
2022/09/01 10:16:19;;;;;;;13.23;10.63;;;;;;;24.83;59.76;64571.69;5020335;28;20644;-74
2022/09/01 10:18:47;;;;;;;17.50;11.32;;;;;;;24.70;60.03;64555.44;5020518;28;20278;-74
2022/09/01 10:21:20;;;;;;;12.77;10.90;;;;;;;24.56;59.43;64543.38;5024631;28;20257;-75
2022/09/01 10:23:47;;;;;;;17.13;11.23;;;;;;;24.48;60.74;64537.59;5024054;28;20198;-76
2022/09/01 10:26:17;;;;;;;13.10;11.82;;;;;;;24.53;61.01;64537.63;5018746;28;20530;-75
2022/09/01 10:28:50;;;;;;;16.15;11.85;;;;;;;24.42;63.61;64518.31;5024378;28;20391;-74
2022/09/01 10:31:17;;;;;;;21.50;12.15;;;;;;;24.38;64.25;64521.94;5024706;28;20216;-74
2022/09/01 10:33:45;;;;;;;15.38;11.85;;;;;;;24.51;62.93;64538.13;5024600;28;20206;-74
2022/09/01 10:36:13;;;;;;;16.65;12.77;;;;;;;24.17;66.10;64500.47;5003892;28;20415;-74
2022/09/01 10:38:43;;;;;;;16.40;11.65;;;;;;;24.17;62.24;64500.47;5016990;28;20517;-75
2022/09/01 10:41:10;;;;;;;16.33;11.85;;;;;;;24.18;60.68;64501.00;5022688;28;20240;-74
2022/09/01 10:43:41;;;;;;;13.95;10.85;;;;;;;24.26;61.28;64512.50;5008937;28;20203;-74
2022/09/01 10:46:39;;;;;;;15.48;9.68;;;;;;;24.22;60.54;64510.38;5012457;28;20454;-73
2022/09/01 10:49:20;;;;;;;16.52;11.63;;;;;;;24.32;61.82;64516.16;5024092;28;20224;-73
2022/09/01 10:51:47;;;;;;;18.58;12.82;;;;;;;24.33;63.53;64519.31;5014739;28;20253;-73
2022/09/01 10:54:53;;;;;;;13.70;11.80;;;;;;;24.46;65.85;64530.84;5003825;28;20195;-73
2022/09/01 10:57:36;;;;;;;12.63;11.32;;;;;;;24.40;63.18;64526.63;5012971;28;20288;-73
2022/09/01 11:00:49;;;;;;;16.67;13.38;;;;;;;24.59;60.95;64549.13;5021601;28;20444;-74
2022/09/01 11:03:39;;;;;;;16.73;11.52;;;;;;;24.81;60.33;64570.13;5007995;28;20198;-73
2022/09/01 11:06:07;;;;;;;11.10;10.00;;;;;;;25.01;57.49;64593.13;5018251;28;20225;-74
2022/09/01 11:08:44;;;;;;;12.68;11.00;;;;;;;24.93;57.51;64579.53;5026834;28;20202;-74
2022/09/01 11:11:24;;;;;;;17.35;11.73;;;;;;;25.13;57.09;64605.19;5025249;28;20272;-73
2022/09/01 11:13:54;;;;;;;13.45;11.45;;;;;;;25.06;57.84;64587.94;5028292;28;20202;-74
2022/09/01 11:16:33;;;;;;;11.48;10.38;;;;;;;25.18;58.36;64608.31;5026551;28;20241;-74
2022/09/01 11:19:32;;;;;;;12.32;10.90;;;;;;;25.82;55.23;64677.50;5016145;28;20241;-74
2022/09/01 11:22:18;;;;;;;12.10;9.80;;;;;;;26.24;52.03;64718.94;5008743;28;20222;-73
2022/09/01 11:24:51;;;;;;;10.85;9.40;;;;;;;25.99;51.29;64690.09;5014119;28;20557;-75
2022/09/01 11:27:51;;;;;;;11.27;9.38;;;;;;;25.82;50.72;64678.03;5022999;28;20222;-75
2022/09/01 11:30:22;;;;;;;15.80;10.20;;;;;;;25.94;51.08;64684.84;5028147;28;20201;-74
2022/09/01 11:32:57;;;;;;;10.98;9.98;;;;;;;26.08;52.47;64699.53;5027040;28;20218;-72